Terminal Aerodrome Forecast
Issued by NWS

Home | Current Version | Previous Version | Text Only | Print | Product List | Glossary On
Versions: 1 2 3 4 5 6 7 8 9 10 11 12 13
000
FTUS42 KMLB 102322
TAFTIX
TAF
KTIX 102322Z 1100/1124 31004KT P6SM SKC
     FM111500 33007KT P6SM SKC
      AMD NOT SKED 1102/1112=

USA.gov is the U.S. government's official web portal to all federal, state and local government web resources and services.